Terminal Aerodrome Forecast
Issued by NWS Wichita, KS

Home | Current Version | Previous Version | Text Only | Print | Product List | Glossary On
Versions: 1 2 3 4 5 6 7 8 9 10 11 12 13 14
000
FTUS43 KICT 010500
TAFICT
TAF
KICT 010527Z 0106/0206 16015KT P6SM VCSH BKN080
     FM011000 17013KT P6SM SCT250
     FM011500 18012G20KT P6SM SCT060
     FM011800 18020G30KT P6SM SCT060
     FM020100 18015G22KT P6SM SCT070 BKN250=

USA.gov is the U.S. government's official web portal to all federal, state and local government web resources and services.